Time;durP1;ratioP1;P1;durP2;ratioP2;P2;SDS_P1;SDS_P2;PMS_P1;PMS_P2;Temp;Humidity;BMP_temperature;BMP_pressure;BME280_temperature;BME280_humidity;BME280_pressure;Samples;Min_cycle;Max_cycle;Signal;HPM_P1;HPM_P2
2023/05/18 00:00:57;;;;;;;0.35;0.35;;;;;;;0.01;0.00;59042.03;10417156;28;20777;-82
2023/05/18 00:06:03;;;;;;;8.10;0.60;;;;;;;0.01;0.00;59042.03;10419413;28;20065;-82
2023/05/18 00:11:05;;;;;;;2.33;0.52;;;;;;;0.01;0.00;59042.03;10446771;28;20049;-83
2023/05/18 00:16:07;;;;;;;1.95;0.63;;;;;;;0.01;0.00;59042.03;10467784;28;20571;-83
2023/05/18 00:21:09;;;;;;;0.68;0.40;;;;;;;0.01;0.00;59042.03;10457837;28;20053;-83
2023/05/18 00:26:10;;;;;;;1.02;0.40;;;;;;;0.01;0.00;59042.03;10448634;28;20116;-82
2023/05/18 00:31:12;;;;;;;0.40;0.30;;;;;;;0.01;0.00;59042.03;10459807;28;20409;-82
2023/05/18 00:36:14;;;;;;;1.15;0.30;;;;;;;0.01;0.00;59042.03;10436325;28;20396;-83
2023/05/18 00:41:16;;;;;;;1.20;0.50;;;;;;;0.01;0.00;59042.03;10446575;28;20037;-83
2023/05/18 00:46:18;;;;;;;0.10;0.10;;;;;;;0.01;0.00;59042.03;10454782;28;20445;-82
2023/05/18 00:51:25;;;;;;;1.70;0.63;;;;;;;0.01;0.00;59042.03;10436978;28;20048;-82
2023/05/18 00:56:27;;;;;;;0.50;0.50;;;;;;;0.01;0.00;59042.03;10453897;28;20043;-82
2023/05/18 01:01:33;;;;;;;2.55;0.57;;;;;;;0.01;0.00;59042.03;10466800;28;20059;-83
2023/05/18 01:06:35;;;;;;;2.25;0.40;;;;;;;0.01;0.00;59042.03;10449304;28;20041;-83
2023/05/18 01:11:52;;;;;;;2.30;0.40;;;;;;;0.01;0.00;59042.03;10467881;28;20053;-83
2023/05/18 01:17:11;;;;;;;1.08;0.90;;;;;;;0.01;0.00;59042.03;10442845;28;20076;-83
2023/05/18 01:22:37;;;;;;;0.35;0.35;;;;;;;0.01;0.00;59042.03;10440473;28;20143;-82
2023/05/18 01:27:45;;;;;;;0.90;0.50;;;;;;;0.01;0.00;59042.03;10450193;28;20072;-82
2023/05/18 01:32:48;;;;;;;0.85;0.28;;;;;;;0.01;0.00;59042.03;10424012;28;20197;-82
2023/05/18 01:37:50;;;;;;;0.50;0.30;;;;;;;0.01;0.00;59042.03;10442658;28;20061;-83
2023/05/18 01:42:55;;;;;;;0.50;0.32;;;;;;;0.01;0.00;59042.03;10423651;28;20071;-82
2023/05/18 01:47:59;;;;;;;0.20;0.20;;;;;;;0.01;0.00;59042.03;10478715;28;20061;-82
2023/05/18 01:53:18;;;;;;;0.60;0.60;;;;;;;0.01;0.00;59042.03;10439643;28;20060;-82
2023/05/18 01:58:21;;;;;;;0.90;0.50;;;;;;;0.01;0.00;59042.03;10474101;28;20048;-82
2023/05/18 02:03:23;;;;;;;1.27;0.50;;;;;;;0.01;0.00;59042.03;10425970;28;20033;-82
2023/05/18 02:08:25;;;;;;;0.30;0.20;;;;;;;0.01;0.00;59042.03;10420385;28;20135;-83
2023/05/18 02:13:27;;;;;;;2.17;0.60;;;;;;;0.01;0.00;59042.03;10467333;28;20593;-83
2023/05/18 02:18:28;;;;;;;4.22;0.45;;;;;;;0.01;0.00;59042.03;10455142;28;20071;-82
2023/05/18 02:23:30;;;;;;;2.13;0.82;;;;;;;0.01;0.00;59042.03;10464044;28;20055;-82
2023/05/18 02:28:32;;;;;;;1.65;0.50;;;;;;;0.01;0.00;59042.03;10457460;28;20049;-82
2023/05/18 02:33:38;;;;;;;0.55;0.45;;;;;;;0.01;0.00;59042.03;10454814;28;20041;-83
2023/05/18 02:38:42;;;;;;;1.23;0.70;;;;;;;0.01;0.00;59042.03;10464465;28;20431;-82
2023/05/18 02:43:45;;;;;;;0.20;0.20;;;;;;;0.01;0.00;59042.03;10468626;28;20044;-82
2023/05/18 02:48:47;;;;;;;1.98;0.45;;;;;;;0.01;0.00;59042.03;10431504;28;20500;-83
2023/05/18 02:53:50;;;;;;;1.85;0.50;;;;;;;0.01;0.00;59042.03;10464026;28;20060;-83
2023/05/18 02:58:56;;;;;;;0.88;0.40;;;;;;;0.01;0.00;59042.03;10432806;28;20157;-83
2023/05/18 03:04:09;;;;;;;0.80;0.60;;;;;;;0.01;0.00;59042.03;10455399;28;20037;-82
2023/05/18 03:09:18;;;;;;;3.13;0.65;;;;;;;0.01;0.00;59042.03;10479289;28;20053;-82
2023/05/18 03:14:19;;;;;;;0.38;0.32;;;;;;;0.01;0.00;59042.03;10467624;28;20040;-83
2023/05/18 03:19:21;;;;;;;1.65;0.32;;;;;;;0.01;0.00;59042.03;10457043;28;20052;-82
2023/05/18 03:24:25;;;;;;;3.40;0.50;;;;;;;0.01;0.00;59042.03;10477192;28;20041;-82
2023/05/18 03:29:27;;;;;;;0.68;0.38;;;;;;;0.01;0.00;59042.03;10440547;28;20082;-83
2023/05/18 03:34:32;;;;;;;1.92;0.40;;;;;;;0.01;0.00;59042.03;10444153;28;20037;-82
2023/05/18 03:39:33;;;;;;;0.90;0.30;;;;;;;0.01;0.00;59042.03;10469141;28;20063;-82
2023/05/18 03:44:35;;;;;;;2.28;0.65;;;;;;;0.01;0.00;59042.03;10486156;28;20045;-81
2023/05/18 03:49:37;;;;;;;0.20;0.20;;;;;;;0.01;0.00;59042.03;10445677;28;20461;-82
2023/05/18 03:54:41;;;;;;;1.85;0.80;;;;;;;0.01;0.00;59042.03;10434577;28;20129;-83
2023/05/18 03:59:44;;;;;;;0.82;0.50;;;;;;;0.01;0.00;59042.03;10431383;28;20052;-82
2023/05/18 04:04:46;;;;;;;1.17;0.60;;;;;;;0.01;0.00;59042.03;10419610;28;20041;-83
2023/05/18 04:09:54;;;;;;;1.45;0.68;;;;;;;0.01;0.00;59042.03;10426711;28;20045;-82
2023/05/18 04:14:57;;;;;;;2.60;0.75;;;;;;;0.01;0.00;59042.03;10435150;28;20203;-83
2023/05/18 04:20:03;;;;;;;7.97;1.23;;;;;;;0.01;0.00;59042.03;10426576;28;20056;-82
2023/05/18 04:25:05;;;;;;;1.00;0.68;;;;;;;0.01;0.00;59042.03;10444842;28;20049;-83
2023/05/18 04:30:10;;;;;;;0.30;0.30;;;;;;;0.01;0.00;59042.03;10443997;28;20520;-82
2023/05/18 04:35:14;;;;;;;3.92;0.77;;;;;;;0.01;0.00;59042.03;10419504;28;20599;-82
2023/05/18 04:40:16;;;;;;;1.40;0.90;;;;;;;0.01;0.00;59042.03;10435864;28;20041;-83
2023/05/18 04:45:20;;;;;;;3.38;1.42;;;;;;;0.01;0.00;59042.03;10426490;28;20497;-83
2023/05/18 04:50:24;;;;;;;0.50;0.50;;;;;;;0.01;0.00;59042.03;10426586;28;20052;-82
2023/05/18 04:55:26;;;;;;;2.25;0.82;;;;;;;0.01;0.00;59042.03;10416833;28;20071;-83
2023/05/18 05:00:30;;;;;;;0.47;0.38;;;;;;;0.01;0.00;59042.03;10425740;28;20044;-82
2023/05/18 05:05:33;;;;;;;0.35;0.35;;;;;;;0.01;0.00;59042.03;10442521;28;20523;-83
2023/05/18 05:10:34;;;;;;;1.98;0.57;;;;;;;0.01;0.00;59042.03;10424750;28;20596;-83
2023/05/18 05:15:36;;;;;;;0.80;0.50;;;;;;;0.01;0.00;59042.03;10441952;28;20559;-82
2023/05/18 05:20:38;;;;;;;1.38;0.70;;;;;;;0.01;0.00;59042.03;10424453;28;20565;-83
2023/05/18 05:25:40;;;;;;;2.42;1.00;;;;;;;0.01;0.00;59042.03;10424710;28;20045;-82
2023/05/18 05:30:41;;;;;;;0.50;0.50;;;;;;;0.01;0.00;59042.03;10423177;28;20048;-81
2023/05/18 05:35:43;;;;;;;2.55;1.00;;;;;;;0.01;0.00;59042.03;10408634;28;20037;-82
2023/05/18 05:40:46;;;;;;;4.65;0.68;;;;;;;0.01;0.00;59042.03;10424667;28;20111;-82
2023/05/18 05:45:48;;;;;;;1.25;0.55;;;;;;;0.01;0.00;59042.03;10408195;28;20037;-83
2023/05/18 05:50:51;;;;;;;1.65;0.93;;;;;;;0.01;0.00;59042.03;10406848;28;20128;-82
2023/05/18 05:55:52;;;;;;;2.90;0.88;;;;;;;0.01;0.00;59042.03;10422338;28;20056;-82
2023/05/18 06:00:54;;;;;;;2.05;0.50;;;;;;;0.01;0.00;59042.03;10424375;28;20033;-82
2023/05/18 06:05:56;;;;;;;1.50;0.70;;;;;;;0.01;0.00;59042.03;10416367;28;20037;-82
2023/05/18 06:10:58;;;;;;;3.00;0.55;;;;;;;0.01;0.00;59042.03;10402689;28;20049;-82
2023/05/18 06:16:00;;;;;;;3.53;0.80;;;;;;;0.01;0.00;59042.03;10421400;28;20716;-83
2023/05/18 06:21:02;;;;;;;5.97;1.02;;;;;;;0.01;0.00;59042.03;10436794;28;20049;-83
2023/05/18 06:26:04;;;;;;;4.65;0.77;;;;;;;0.01;0.00;59042.03;10424686;28;20037;-83
2023/05/18 06:31:44;;;;;;;3.63;1.30;;;;;;;0.01;0.00;59042.03;10432722;28;20524;-82
2023/05/18 06:36:52;;;;;;;4.50;0.75;;;;;;;0.01;0.00;59042.03;10419633;28;20048;-84
2023/05/18 06:41:53;;;;;;;1.20;0.63;;;;;;;0.01;0.00;59042.03;10448436;28;20045;-83
2023/05/18 06:46:58;;;;;;;2.13;0.90;;;;;;;0.01;0.00;59042.03;10430287;28;20049;-84
2023/05/18 06:52:03;;;;;;;0.40;0.40;;;;;;;0.01;0.00;59042.03;10409663;28;20055;-84
2023/05/18 06:57:06;;;;;;;1.80;1.00;;;;;;;0.01;0.00;59042.03;10430205;28;20624;-82
2023/05/18 07:02:08;;;;;;;2.83;1.00;;;;;;;0.01;0.00;59042.03;10425010;28;20059;-82
2023/05/18 07:07:10;;;;;;;0.73;0.60;;;;;;;0.01;0.00;59042.03;10413240;28;20106;-82
2023/05/18 07:12:11;;;;;;;2.67;0.90;;;;;;;0.01;0.00;59042.03;10452273;28;20082;-82
2023/05/18 07:17:13;;;;;;;1.45;0.80;;;;;;;0.01;0.00;59042.03;10443638;28;20059;-84
2023/05/18 07:22:15;;;;;;;2.15;1.00;;;;;;;0.01;0.00;59042.03;10450530;28;20045;-83
2023/05/18 07:27:17;;;;;;;3.00;1.08;;;;;;;0.01;0.00;59042.03;10429594;28;20040;-83
2023/05/18 07:32:18;;;;;;;2.97;1.08;;;;;;;0.01;0.00;59042.03;10459353;28;20087;-83
2023/05/18 07:37:20;;;;;;;3.53;0.80;;;;;;;0.01;0.00;59042.03;10437005;28;20041;-84
2023/05/18 07:42:22;;;;;;;5.13;1.30;;;;;;;0.01;0.00;59042.03;10452303;28;20049;-84
2023/05/18 07:47:24;;;;;;;5.10;0.88;;;;;;;0.01;0.00;59042.03;10450502;28;20132;-84
2023/05/18 07:52:26;;;;;;;1.88;0.63;;;;;;;0.01;0.00;59042.03;10430652;28;20041;-84
2023/05/18 07:57:29;;;;;;;0.82;0.73;;;;;;;0.01;0.00;59042.03;10449358;28;20068;-84
2023/05/18 08:02:31;;;;;;;4.45;0.60;;;;;;;0.01;0.00;59042.03;10447131;28;20040;-84
2023/05/18 08:07:34;;;;;;;1.10;0.65;;;;;;;0.01;0.00;59042.03;10451367;28;20447;-83
2023/05/18 08:12:36;;;;;;;2.33;0.75;;;;;;;0.01;0.00;59042.03;10428351;28;20041;-84
2023/05/18 08:17:38;;;;;;;1.85;0.80;;;;;;;0.01;0.00;59042.03;10441453;28;20121;-85
2023/05/18 08:22:40;;;;;;;3.05;0.75;;;;;;;0.01;0.00;59042.03;10408901;28;20045;-84
2023/05/18 08:27:42;;;;;;;1.77;0.75;;;;;;;0.01;0.00;59042.03;10436372;28;20076;-84
2023/05/18 08:32:43;;;;;;;2.08;0.90;;;;;;;0.01;0.00;59042.03;10428199;28;20097;-83
2023/05/18 08:37:45;;;;;;;1.05;0.80;;;;;;;0.01;0.00;59042.03;10440534;28;20499;-83
2023/05/18 08:43:17;;;;;;;4.65;1.25;;;;;;;0.01;0.00;59042.03;10447492;28;20044;-84
2023/05/18 08:48:22;;;;;;;2.08;1.10;;;;;;;0.01;0.00;59042.03;10422373;28;20068;-84
2023/05/18 08:54:35;;;;;;;;;;;;;;;;;;;;;
2023/05/18 09:01:10;;;;;;;;;;;;;;;;;;;;;
2023/05/18 09:06:23;;;;;;;3.17;0.80;;;;;;;0.01;0.00;59042.03;10215227;28;20109;-82
2023/05/18 09:11:34;;;;;;;1.75;0.75;;;;;;;0.01;0.00;59042.03;10242964;28;20081;-82
2023/05/18 09:16:44;;;;;;;1.40;0.82;;;;;;;0.01;0.00;59042.03;10276203;28;20065;-83
2023/05/18 09:22:52;;;;;;;1.77;0.90;;;;;;;0.01;0.00;59042.03;10339689;28;20048;-84
2023/05/18 09:28:34;;;;;;;1.63;0.90;;;;;;;0.01;0.00;59042.03;10384512;28;20037;-84
2023/05/18 09:35:17;;;;;;;3.72;1.27;;;;;;;0.01;0.00;59042.03;10295844;28;20057;-84
2023/05/18 09:41:11;;;;;;;1.73;0.80;;;;;;;0.01;0.00;59042.03;10314889;28;20108;-83
2023/05/18 09:52:48;;;;;;;1.73;0.80;;;;;;;0.01;0.00;59042.03;10395890;28;20047;-85
2023/05/18 09:57:55;;;;;;;2.00;0.90;;;;;;;0.01;0.00;59042.03;10422380;28;20055;-83
2023/05/18 10:02:57;;;;;;;4.97;1.05;;;;;;;0.01;0.00;59042.03;10418316;28;20049;-82
2023/05/18 10:07:59;;;;;;;1.88;0.85;;;;;;;0.01;0.00;59042.03;10430945;28;20120;-82
2023/05/18 10:13:06;;;;;;;2.20;1.35;;;;;;;0.01;0.00;59042.03;10400191;28;20049;-83
2023/05/18 10:18:08;;;;;;;5.00;1.02;;;;;;;0.01;0.00;59042.03;10426429;28;20050;-87
2023/05/18 10:24:11;;;;;;;;;;;;;;;;;;;;;
2023/05/18 10:29:56;;;;;;;7.50;1.00;;;;;;;0.01;0.00;59042.03;10152272;29;20059;-86
2023/05/18 10:35:40;;;;;;;8.05;1.60;;;;;;;0.01;0.00;59042.03;10214253;28;20722;-85
2023/05/18 10:41:07;;;;;;;;;;;;;;;0.01;0.00;59042.03;10237400;28;20063;-86
2023/05/18 10:46:25;;;;;;;;;;;;;;;0.01;0.00;59042.03;10236313;28;20203;-84
2023/05/18 10:51:30;;;;;;;1.42;1.10;;;;;;;0.01;0.00;59042.03;10259865;28;19922;-85
2023/05/18 10:56:34;;;;;;;3.88;1.15;;;;;;;0.01;0.00;59042.03;10239879;28;20076;-84
2023/05/18 11:01:38;;;;;;;7.05;1.17;;;;;;;0.01;0.00;59042.03;10207491;28;20055;-86
2023/05/18 11:06:40;;;;;;;5.32;1.58;;;;;;;0.01;0.00;59042.03;10410004;28;20059;-85
2023/05/18 11:11:56;;;;;;;5.20;1.80;;;;;;;0.01;0.00;59042.03;10430207;28;20041;-87
2023/05/18 11:17:20;;;;;;;3.40;1.10;;;;;;;0.01;0.00;59042.03;10429584;28;20044;-86
2023/05/18 11:22:48;;;;;;;2.88;1.13;;;;;;;0.01;0.00;59042.03;10423839;28;20076;-86
2023/05/18 11:28:02;;;;;;;3.95;1.20;;;;;;;0.01;0.00;59042.03;10427027;28;20049;-87
2023/05/18 11:33:09;;;;;;;2.55;1.20;;;;;;;0.01;0.00;59042.03;10412866;28;20048;-87
2023/05/18 11:38:11;;;;;;;5.50;2.00;;;;;;;0.01;0.00;59042.03;10413488;28;20122;-85
2023/05/18 11:43:21;;;;;;;4.90;1.70;;;;;;;0.01;0.00;59042.03;10402768;28;20402;-87
2023/05/18 11:48:48;;;;;;;2.63;1.52;;;;;;;0.01;0.00;59042.03;10415884;28;20060;-85
2023/05/18 11:53:52;;;;;;;3.63;1.67;;;;;;;0.01;0.00;59042.03;10460933;28;20049;-86
2023/05/18 11:59:10;;;;;;;3.08;1.42;;;;;;;0.01;0.00;59042.03;10430428;28;20278;-85
2023/05/18 12:04:13;;;;;;;5.35;1.63;;;;;;;0.01;0.00;59042.03;10412392;28;20051;-86
2023/05/18 12:09:18;;;;;;;5.38;1.58;;;;;;;0.01;0.00;59042.03;10435062;28;20193;-86
2023/05/18 12:14:26;;;;;;;1.63;1.17;;;;;;;0.00;0.00;74237.56;10396313;28;20029;-87
2023/05/18 12:20:03;;;;;;;6.53;1.63;;;;;;;0.00;0.00;74240.59;10436151;28;20053;-87
2023/05/18 12:25:07;;;;;;;4.00;1.42;;;;;;;0.00;0.00;74226.88;10406389;28;20055;-86
2023/05/18 12:30:21;;;;;;;5.28;1.33;;;;;;;0.00;0.00;74231.44;10426509;28;20052;-86
2023/05/18 12:35:29;;;;;;;3.65;1.42;;;;;;;0.00;0.00;74219.25;10429010;28;20049;-86
2023/05/18 12:40:45;;;;;;;3.22;1.67;;;;;;;0.00;0.00;74165.84;10431187;28;20041;-86
2023/05/18 12:46:13;;;;;;;21.98;7.82;;;;;;;0.00;0.00;74181.09;10419145;28;20053;-83
2023/05/18 12:51:19;;;;;;;3.88;1.65;;;;;;;0.00;0.00;74141.44;10419302;28;20156;-81
2023/05/18 12:56:24;;;;;;;6.22;1.40;;;;;;;0.00;0.00;74190.25;10451887;28;20480;-79
2023/05/18 13:01:25;;;;;;;4.15;1.20;;;;;;;0.00;0.00;74200.94;10432380;28;20069;-80
2023/05/18 13:06:27;;;;;;;3.33;1.55;;;;;;;0.00;0.00;74164.31;10450668;28;20041;-81
2023/05/18 13:11:33;;;;;;;1.83;1.05;;;;;;;0.00;0.00;74178.03;10413124;28;20040;-80
2023/05/18 13:16:43;;;;;;;3.22;1.60;;;;;;;0.00;0.00;74141.44;10439023;28;20041;-83
2023/05/18 13:21:55;;;;;;;2.78;1.25;;;;;;;0.00;0.00;74156.69;10439742;28;20037;-82
2023/05/18 13:26:57;;;;;;;5.53;1.67;;;;;;;0.00;0.00;74152.09;10444426;28;20413;-82
2023/05/18 13:31:59;;;;;;;2.17;1.25;;;;;;;0.00;0.00;74165.84;10445971;28;20486;-84
2023/05/18 13:37:00;;;;;;;4.93;1.38;;;;;;;0.00;0.00;74205.50;10447776;28;20055;-83
2023/05/18 13:42:02;;;;;;;3.97;1.48;;;;;;;0.00;0.00;74228.41;10449993;28;20053;-83
2023/05/18 13:47:04;;;;;;;5.05;1.45;;;;;;;0.00;0.00;74199.41;10449535;28;20048;-82
2023/05/18 13:52:06;;;;;;;2.63;1.20;;;;;;;0.00;0.00;74159.72;10429237;28;20068;-82
2023/05/18 13:57:07;;;;;;;4.22;1.20;;;;;;;0.00;0.00;74173.47;10449103;28;20075;-83
2023/05/18 14:02:10;;;;;;;2.38;1.02;;;;;;;0.00;0.00;74152.09;10432527;28;20740;-82
2023/05/18 14:07:12;;;;;;;3.45;1.30;;;;;;;0.00;0.00;74133.78;10417311;28;20100;-82
2023/05/18 14:12:14;;;;;;;2.65;1.42;;;;;;;0.00;0.00;74133.78;10456848;28;20461;-82
2023/05/18 14:17:16;;;;;;;5.13;1.10;;;;;;;0.00;0.00;74130.75;10455614;28;20144;-82
2023/05/18 14:22:18;;;;;;;7.68;1.38;;;;;;;0.00;0.00;74120.06;10460037;28;20057;-82
2023/05/18 14:27:20;;;;;;;4.25;1.38;;;;;;;0.00;0.00;74124.63;10455247;28;20118;-82
2023/05/18 14:32:24;;;;;;;3.92;1.13;;;;;;;0.00;0.00;74095.66;10433325;28;20052;-82
2023/05/18 14:37:26;;;;;;;5.25;1.77;;;;;;;0.00;0.00;74109.38;10435144;28;20056;-82
2023/05/18 14:42:28;;;;;;;4.15;1.38;;;;;;;0.00;0.00;74060.56;10460396;28;20080;-82
2023/05/18 14:47:30;;;;;;;3.50;1.15;;;;;;;0.00;0.00;74101.75;10455455;28;20056;-81
2023/05/18 14:52:32;;;;;;;4.05;1.48;;;;;;;0.00;0.00;74109.38;10434541;28;20152;-82
2023/05/18 14:57:33;;;;;;;3.15;1.10;;;;;;;0.00;0.00;74083.44;10457923;28;20049;-80
2023/05/18 15:02:35;;;;;;;2.15;0.90;;;;;;;0.00;0.00;74144.47;10441910;28;20053;-81
2023/05/18 15:07:38;;;;;;;10.70;1.63;;;;;;;0.00;0.00;74146.00;10438273;28;20049;-81
2023/05/18 15:12:52;;;;;;;3.83;1.10;;;;;;;0.00;0.00;74107.84;10439347;28;20650;-87
2023/05/18 15:17:54;;;;;;;1.77;1.08;;;;;;;0.00;0.00;74069.72;10431942;28;20502;-78
2023/05/18 15:22:56;;;;;;;4.00;1.00;;;;;;;0.00;0.00;74081.91;10397348;28;20068;-78
2023/05/18 15:27:57;;;;;;;4.60;1.20;;;;;;;0.00;0.00;74112.44;10415812;28;20068;-77
2023/05/18 15:33:04;;;;;;;3.33;1.40;;;;;;;0.00;0.00;74120.06;10444612;28;20048;-81
2023/05/18 15:38:10;;;;;;;2.53;1.10;;;;;;;0.00;0.00;74069.72;10439038;28;20092;-81
2023/05/18 15:43:12;;;;;;;7.03;1.50;;;;;;;0.00;0.00;74088.03;10434236;28;20045;-81
2023/05/18 15:48:13;;;;;;;7.80;1.38;;;;;;;0.00;0.00;74094.13;10425775;28;20152;-82
2023/05/18 15:53:15;;;;;;;2.97;1.23;;;;;;;0.00;0.00;74057.50;10425372;28;20053;-83
2023/05/18 15:58:17;;;;;;;4.20;1.23;;;;;;;0.00;0.00;74092.59;10432965;28;20556;-82
2023/05/18 16:03:18;;;;;;;3.75;1.20;;;;;;;0.00;0.00;74162.78;10422954;28;20080;-81
2023/05/18 16:08:20;;;;;;;5.32;1.48;;;;;;;0.00;0.00;74115.47;10436611;28;20159;-82
2023/05/18 16:13:24;;;;;;;4.75;1.15;;;;;;;0.00;0.00;74106.31;10433324;28;20076;-82
2023/05/18 16:18:27;;;;;;;6.03;1.37;;;;;;;0.00;0.00;74078.88;10408066;28;24516;-82
2023/05/18 16:23:28;;;;;;;2.35;1.20;;;;;;;0.00;0.00;74052.91;10427975;28;20071;-81
2023/05/18 16:28:31;;;;;;;2.78;1.17;;;;;;;0.00;0.00;74086.50;10444104;28;20144;-78
2023/05/18 16:33:36;;;;;;;1.77;1.02;;;;;;;0.00;0.00;74075.81;10439873;28;20118;-78
2023/05/18 16:38:38;;;;;;;3.38;0.98;;;;;;;0.00;0.00;74081.91;10422445;28;20095;-78
2023/05/18 16:43:40;;;;;;;9.73;1.70;;;;;;;0.00;0.00;74113.97;10400027;28;20770;-77
2023/05/18 16:48:41;;;;;;;5.05;1.05;;;;;;;0.00;0.00;74094.13;10399763;28;20575;-75
2023/05/18 16:53:43;;;;;;;8.55;1.42;;;;;;;0.00;0.00;74077.34;10418589;28;20048;-76
2023/05/18 16:58:50;;;;;;;3.25;1.20;;;;;;;0.00;0.00;74112.44;10410406;28;20200;-81
2023/05/18 17:03:52;;;;;;;4.25;1.10;;;;;;;0.00;0.00;74167.38;10413243;28;20056;-82
2023/05/18 17:08:57;;;;;;;1.95;1.02;;;;;;;0.00;0.00;74139.91;10422760;28;20104;-80
2023/05/18 17:14:00;;;;;;;5.38;1.10;;;;;;;0.00;0.00;74158.22;10421664;28;20144;-80
2023/05/18 17:19:02;;;;;;;2.58;1.13;;;;;;;0.00;0.00;74176.53;10413420;28;20045;-81
2023/05/18 17:24:04;;;;;;;1.77;1.00;;;;;;;0.01;0.00;59042.03;10400972;28;20053;-79
2023/05/18 17:29:07;;;;;;;5.28;1.05;;;;;;;0.01;0.00;59042.03;10399224;28;20037;-79
2023/05/18 17:34:08;;;;;;;3.28;0.90;;;;;;;0.01;0.00;59042.03;10398573;28;20132;-81
2023/05/18 17:39:10;;;;;;;2.75;1.00;;;;;;;0.01;0.00;59042.03;10390162;28;20441;-80
2023/05/18 17:44:12;;;;;;;4.63;1.20;;;;;;;0.01;0.00;59042.03;10410296;28;20088;-79
2023/05/18 17:49:14;;;;;;;1.25;0.75;;;;;;;0.01;0.00;59042.03;10397614;28;20049;-79
2023/05/18 17:54:16;;;;;;;5.75;1.05;;;;;;;0.01;0.00;59042.03;10412707;28;20041;-79
2023/05/18 17:59:18;;;;;;;4.32;0.70;;;;;;;0.01;0.00;59042.03;10413283;28;20064;-80
2023/05/18 18:04:19;;;;;;;4.68;0.85;;;;;;;0.01;0.00;59042.03;10417106;28;20069;-80
2023/05/18 18:09:21;;;;;;;2.92;0.70;;;;;;;0.01;0.00;59042.03;10383407;28;20060;-80
2023/05/18 18:14:23;;;;;;;2.70;0.80;;;;;;;0.01;0.00;59042.03;10427747;28;20479;-79
2023/05/18 18:19:26;;;;;;;3.72;0.90;;;;;;;0.01;0.00;59042.03;10420915;28;20045;-80
2023/05/18 18:24:28;;;;;;;1.90;0.82;;;;;;;0.01;0.00;59042.03;10427814;28;21443;-80
2023/05/18 18:29:30;;;;;;;3.55;0.88;;;;;;;0.01;0.00;59042.03;10448114;28;20576;-80
2023/05/18 18:34:31;;;;;;;1.50;0.65;;;;;;;0.01;0.00;59042.03;10434634;28;20226;-80
2023/05/18 18:39:34;;;;;;;1.85;0.80;;;;;;;0.01;0.00;59042.03;10445354;28;20084;-79
2023/05/18 18:44:36;;;;;;;1.23;0.70;;;;;;;0.01;0.00;59042.03;10415735;28;20041;-80
2023/05/18 18:49:37;;;;;;;2.70;1.30;;;;;;;0.01;0.00;59042.03;10422864;28;20041;-80
2023/05/18 18:54:39;;;;;;;2.58;0.90;;;;;;;0.01;0.00;59042.03;10429818;28;20036;-81
2023/05/18 18:59:40;;;;;;;3.95;0.85;;;;;;;0.01;0.00;59042.03;10417398;28;20041;-80
2023/05/18 19:04:42;;;;;;;2.25;0.68;;;;;;;0.01;0.00;59042.03;10452421;28;20040;-82
2023/05/18 19:09:44;;;;;;;6.88;1.02;;;;;;;0.01;0.00;59042.03;10435271;28;20057;-80
2023/05/18 19:14:46;;;;;;;3.03;0.85;;;;;;;0.01;0.00;59042.03;10429079;28;20087;-81
2023/05/18 19:19:48;;;;;;;2.25;0.90;;;;;;;0.01;0.00;59042.03;10408658;28;20430;-79
2023/05/18 19:24:49;;;;;;;1.02;0.65;;;;;;;0.01;0.00;59042.03;10415077;28;20034;-80
2023/05/18 19:29:52;;;;;;;2.13;1.02;;;;;;;0.01;0.00;59042.03;10410722;28;20049;-80
2023/05/18 19:34:54;;;;;;;1.42;0.63;;;;;;;0.01;0.00;59042.03;10421100;28;20202;-79
2023/05/18 19:39:56;;;;;;;4.43;1.10;;;;;;;0.01;0.00;59042.03;10453726;28;20063;-81
2023/05/18 19:44:58;;;;;;;7.68;0.93;;;;;;;0.01;0.00;59042.03;10445455;28;20041;-82
2023/05/18 19:50:00;;;;;;;0.98;0.57;;;;;;;0.01;0.00;59042.03;10443257;28;20114;-81
2023/05/18 19:55:02;;;;;;;2.35;0.73;;;;;;;0.01;0.00;59042.03;10448988;28;20054;-82
2023/05/18 20:00:05;;;;;;;3.03;1.50;;;;;;;0.01;0.00;59042.03;10488840;28;20494;-81
2023/05/18 20:05:16;;;;;;;0.95;0.65;;;;;;;0.01;0.00;59042.03;10453410;28;20048;-81
2023/05/18 20:10:19;;;;;;;1.10;0.80;;;;;;;0.01;0.00;59042.03;10479072;28;20052;-81
2023/05/18 20:15:21;;;;;;;4.13;0.98;;;;;;;0.01;0.00;59042.03;10472148;28;20064;-81
2023/05/18 20:20:29;;;;;;;3.30;0.68;;;;;;;0.01;0.00;59042.03;10473969;28;20048;-81
2023/05/18 20:25:33;;;;;;;1.55;0.80;;;;;;;0.01;0.00;59042.03;10487511;28;20044;-81
2023/05/18 20:30:35;;;;;;;4.78;0.93;;;;;;;0.01;0.00;59042.03;10451960;28;20041;-81
2023/05/18 20:35:37;;;;;;;5.38;1.35;;;;;;;0.01;0.00;59042.03;10453879;28;20072;-81
2023/05/18 20:40:40;;;;;;;4.22;0.60;;;;;;;0.01;0.00;59042.03;10440286;28;20065;-82
2023/05/18 20:45:45;;;;;;;3.58;1.60;;;;;;;0.01;0.00;59042.03;10442156;28;20061;-81
2023/05/18 20:50:47;;;;;;;1.27;0.85;;;;;;;0.01;0.00;59042.03;10426183;28;20057;-81
2023/05/18 20:55:49;;;;;;;3.08;0.70;;;;;;;0.01;0.00;59042.03;10451519;28;20047;-82
2023/05/18 21:00:54;;;;;;;3.13;0.80;;;;;;;0.01;0.00;59042.03;10433549;28;20053;-82
2023/05/18 21:05:56;;;;;;;4.63;0.82;;;;;;;0.01;0.00;59042.03;10433022;28;20037;-81
2023/05/18 21:10:57;;;;;;;2.25;0.80;;;;;;;0.01;0.00;59042.03;10434344;28;20223;-82
2023/05/18 21:16:00;;;;;;;0.93;0.47;;;;;;;0.01;0.00;59042.03;10444798;28;20408;-81
2023/05/18 21:21:02;;;;;;;1.42;0.70;;;;;;;0.01;0.00;59042.03;10451921;28;20056;-81
2023/05/18 21:26:04;;;;;;;0.88;0.68;;;;;;;0.01;0.00;59042.03;10446650;28;20100;-82
2023/05/18 21:31:06;;;;;;;3.95;0.70;;;;;;;0.01;0.00;59042.03;10427810;28;20060;-82
2023/05/18 21:36:08;;;;;;;2.03;1.13;;;;;;;0.01;0.00;59042.03;10437258;28;20056;-81
2023/05/18 21:41:10;;;;;;;4.80;1.50;;;;;;;0.01;0.00;59042.03;10428082;28;20136;-82
2023/05/18 21:46:12;;;;;;;5.40;1.45;;;;;;;0.01;0.00;59042.03;10434042;28;20055;-81
2023/05/18 21:51:15;;;;;;;2.60;0.82;;;;;;;0.01;0.00;59042.03;10452545;28;20063;-81
2023/05/18 21:56:17;;;;;;;5.13;0.90;;;;;;;0.01;0.00;59042.03;10450549;28;20064;-82
2023/05/18 22:01:20;;;;;;;5.07;1.63;;;;;;;0.01;0.00;59042.03;10446960;28;20041;-81
2023/05/18 22:06:22;;;;;;;1.38;0.90;;;;;;;0.01;0.00;59042.03;10452525;28;20041;-81
2023/05/18 22:11:23;;;;;;;1.15;0.77;;;;;;;0.01;0.00;59042.03;10453163;28;20075;-82
2023/05/18 22:16:25;;;;;;;2.83;1.05;;;;;;;0.01;0.00;59042.03;10434239;28;20177;-81
2023/05/18 22:21:27;;;;;;;4.43;1.00;;;;;;;0.01;0.00;59042.03;10453157;28;20766;-81
2023/05/18 22:26:29;;;;;;;2.72;1.05;;;;;;;0.01;0.00;59042.03;10454634;28;20041;-82
2023/05/18 22:31:31;;;;;;;4.53;1.63;;;;;;;0.01;0.00;59042.03;10453673;28;20106;-82
2023/05/18 22:36:33;;;;;;;1.25;0.88;;;;;;;0.01;0.00;59042.03;10453406;28;20405;-82
2023/05/18 22:41:35;;;;;;;2.38;1.23;;;;;;;0.01;0.00;59042.03;10454849;28;20136;-82
2023/05/18 22:46:37;;;;;;;1.77;1.02;;;;;;;0.01;0.00;59042.03;10455591;28;20064;-81
2023/05/18 22:51:39;;;;;;;1.52;1.15;;;;;;;0.01;0.00;59042.03;10458349;28;20045;-81
2023/05/18 22:56:41;;;;;;;1.70;0.80;;;;;;;0.01;0.00;59042.03;10433237;28;20544;-81
2023/05/18 23:01:42;;;;;;;3.60;1.55;;;;;;;0.01;0.00;59042.03;10453559;28;20041;-80
2023/05/18 23:06:48;;;;;;;3.50;1.13;;;;;;;0.01;0.00;59042.03;10459953;28;20067;-80
2023/05/18 23:11:51;;;;;;;2.85;1.00;;;;;;;0.01;0.00;59042.03;10457467;28;20456;-81
2023/05/18 23:16:57;;;;;;;2.60;1.13;;;;;;;0.01;0.00;59042.03;10459681;28;20040;-81
2023/05/18 23:21:58;;;;;;;2.08;1.00;;;;;;;0.01;0.00;59042.03;10463610;28;20132;-81
2023/05/18 23:27:00;;;;;;;3.05;1.38;;;;;;;0.01;0.00;59042.03;10438369;28;20045;-82
2023/05/18 23:32:02;;;;;;;3.28;1.70;;;;;;;0.01;0.00;59042.03;10430553;28;20465;-81
2023/05/18 23:37:10;;;;;;;3.35;1.67;;;;;;;0.01;0.00;59042.03;10447679;28;20484;-82
2023/05/18 23:42:13;;;;;;;3.00;1.48;;;;;;;0.01;0.00;59042.03;10456030;28;20045;-82
2023/05/18 23:47:15;;;;;;;3.17;1.23;;;;;;;0.01;0.00;59042.03;10454242;28;20045;-82
2023/05/18 23:52:21;;;;;;;3.40;1.55;;;;;;;0.01;0.00;59042.03;10464474;28;20045;-82
2023/05/18 23:57:24;;;;;;;2.67;1.45;;;;;;;0.01;0.00;59042.03;10464622;28;20068;-82
